Time;durP1;ratioP1;P1;durP2;ratioP2;P2;SDS_P1;SDS_P2;PMS_P1;PMS_P2;Temp;Humidity;BMP_temperature;BMP_pressure;BME280_temperature;BME280_humidity;BME280_pressure;Samples;Min_cycle;Max_cycle;Signal;HPM_P1;HPM_P2
2023/09/27 00:00:43;;;;;;;13.13;9.47;;;14.30;78.30;;;;;;5083416;28;20473;-78
2023/09/27 00:03:12;;;;;;;15.63;9.50;;;14.20;78.40;;;;;;5088154;28;20506;-79
2023/09/27 00:05:40;;;;;;;15.83;8.70;;;14.20;78.50;;;;;;5071005;28;20478;-78
2023/09/27 00:08:11;;;;;;;12.57;8.97;;;14.20;78.50;;;;;;5088195;28;21057;-79
2023/09/27 00:10:39;;;;;;;12.50;9.17;;;14.20;78.40;;;;;;5081564;28;20455;-79
2023/09/27 00:13:07;;;;;;;12.47;9.30;;;14.20;78.40;;;;;;5085847;28;20538;-80
2023/09/27 00:15:35;;;;;;;12.27;9.23;;;14.30;78.40;;;;;;5085783;28;20487;-79
2023/09/27 00:18:04;;;;;;;11.17;8.20;;;14.30;78.40;;;;;;5070785;28;20541;-80
2023/09/27 00:20:34;;;;;;;10.90;7.83;;;14.30;78.40;;;;;;5084368;28;20506;-79
2023/09/27 00:23:03;;;;;;;14.90;9.10;;;14.20;78.30;;;;;;5086476;28;20574;-79
2023/09/27 00:25:31;;;;;;;12.33;8.83;;;14.20;78.30;;;;;;5088475;28;20479;-78
2023/09/27 00:27:59;;;;;;;12.73;8.87;;;14.20;78.40;;;;;;5090120;28;20949;-79
2023/09/27 00:30:27;;;;;;;12.30;8.10;;;14.10;78.50;;;;;;5086845;28;20597;-79
2023/09/27 00:32:55;;;;;;;14.33;9.70;;;14.10;78.60;;;;;;5089900;28;20908;-79
2023/09/27 00:35:23;;;;;;;12.60;9.50;;;14.10;78.70;;;;;;5069312;28;20510;-78
2023/09/27 00:37:53;;;;;;;11.90;8.73;;;14.20;78.80;;;;;;5086981;28;20829;-79
2023/09/27 00:40:23;;;;;;;13.63;8.07;;;14.20;78.80;;;;;;5086329;28;20463;-80
2023/09/27 00:42:51;;;;;;;11.43;7.90;;;14.20;78.70;;;;;;5081515;28;20476;-77
2023/09/27 00:45:19;;;;;;;10.20;7.73;;;14.20;78.60;;;;;;5070296;28;20543;-78
2023/09/27 00:47:49;;;;;;;10.83;8.20;;;14.20;78.40;;;;;;5086872;28;20458;-78
2023/09/27 00:50:18;;;;;;;11.23;8.10;;;14.20;78.40;;;;;;5086537;28;20487;-80
2023/09/27 00:52:47;;;;;;;10.37;8.00;;;14.20;78.30;;;;;;5072212;28;20475;-78
2023/09/27 00:55:20;;;;;;;14.43;7.93;;;14.10;78.30;;;;;;5086180;28;20462;-78
2023/09/27 00:57:51;;;;;;;12.13;8.10;;;14.10;78.30;;;;;;5100863;28;20516;-79
2023/09/27 01:00:20;;;;;;;12.37;8.67;;;14.10;78.20;;;;;;5069317;28;20455;-78
2023/09/27 01:02:48;;;;;;;14.00;8.60;;;14.00;78.10;;;;;;5088438;28;20494;-78
2023/09/27 01:05:18;;;;;;;13.87;9.60;;;14.00;78.20;;;;;;5069172;28;20465;-78
2023/09/27 01:07:47;;;;;;;13.27;9.00;;;14.00;78.30;;;;;;5069119;28;20969;-79
2023/09/27 01:10:16;;;;;;;13.53;10.33;;;14.00;78.10;;;;;;5085836;28;20470;-80
2023/09/27 01:12:44;;;;;;;14.03;10.10;;;13.90;78.20;;;;;;5089718;28;20508;-80
2023/09/27 01:15:13;;;;;;;12.87;9.60;;;13.90;78.30;;;;;;5090017;28;20944;-79
2023/09/27 01:17:53;;;;;;;16.07;11.30;;;13.90;78.50;;;;;;5100926;28;20470;-81
2023/09/27 01:20:22;;;;;;;19.20;11.50;;;13.90;78.80;;;;;;5088983;28;21012;-80
2023/09/27 01:22:55;;;;;;;24.57;12.07;;;14.00;78.80;;;;;;5085380;28;20476;-79
2023/09/27 01:25:27;;;;;;;25.93;13.10;;;14.00;78.90;;;;;;5088148;28;20995;-81
2023/09/27 01:27:55;;;;;;;18.87;14.37;;;14.00;79.00;;;;;;5069004;28;20461;-79
2023/09/27 01:30:24;;;;;;;19.63;11.50;;;14.10;79.20;;;;;;5065468;28;20551;-80
2023/09/27 01:32:52;;;;;;;29.30;13.87;;;14.10;79.20;;;;;;5087138;28;20448;-80
2023/09/27 01:35:20;;;;;;;24.73;16.43;;;14.10;79.20;;;;;;5081816;28;20461;-80
2023/09/27 01:37:48;;;;;;;35.23;19.30;;;14.10;79.40;;;;;;5081743;28;20459;-80
2023/09/27 01:40:22;;;;;;;138.87;25.93;;;14.20;79.60;;;;;;5089780;28;20460;-78
2023/09/27 01:42:50;;;;;;;308.03;32.70;;;14.20;79.70;;;;;;5086223;28;20554;-79
2023/09/27 01:45:19;;;;;;;127.60;27.40;;;14.20;79.80;;;;;;5087836;28;20463;-81
2023/09/27 01:47:48;;;;;;;142.50;27.70;;;14.20;80.00;;;;;;5087860;28;20920;-81
2023/09/27 01:50:18;;;;;;;81.13;26.33;;;14.20;80.20;;;;;;5071782;28;20456;-78
2023/09/27 01:52:47;;;;;;;93.10;22.00;;;14.20;80.40;;;;;;5069458;28;20574;-78
2023/09/27 01:55:22;;;;;;;46.93;22.23;;;14.30;80.50;;;;;;5086367;28;20536;-80
2023/09/27 01:57:52;;;;;;;42.57;20.33;;;14.30;80.70;;;;;;5071377;28;20458;-80
2023/09/27 02:00:21;;;;;;;57.83;18.07;;;14.30;80.70;;;;;;5066929;28;20455;-80
2023/09/27 02:02:50;;;;;;;28.07;16.23;;;14.30;80.70;;;;;;5063434;28;21088;-78
2023/09/27 02:05:19;;;;;;;27.30;16.30;;;14.30;80.80;;;;;;5068890;28;20481;-80
2023/09/27 02:07:47;;;;;;;27.03;15.97;;;14.30;80.80;;;;;;5085514;28;20588;-81
2023/09/27 02:10:15;;;;;;;22.37;16.17;;;14.30;80.80;;;;;;5086029;28;20505;-78
2023/09/27 02:12:45;;;;;;;21.83;15.30;;;14.30;80.90;;;;;;5069521;28;20970;-80
2023/09/27 02:15:14;;;;;;;22.67;16.20;;;14.30;81.00;;;;;;5087086;28;20529;-79
2023/09/27 02:17:43;;;;;;;20.13;15.00;;;14.30;81.00;;;;;;5067674;28;21134;-79
2023/09/27 02:20:14;;;;;;;23.40;15.30;;;14.30;81.00;;;;;;5069952;28;20452;-81
2023/09/27 02:22:42;;;;;;;22.50;14.00;;;14.30;81.00;;;;;;5071896;28;20488;-80
2023/09/27 02:25:13;;;;;;;18.57;13.53;;;14.20;81.00;;;;;;5088214;28;20529;-81
2023/09/27 02:27:43;;;;;;;20.00;14.47;;;14.20;81.00;;;;;;5088221;28;20460;-79
2023/09/27 02:30:14;;;;;;;19.30;13.77;;;14.20;81.10;;;;;;5068946;28;20522;-79
2023/09/27 02:32:43;;;;;;;18.70;13.20;;;14.20;81.10;;;;;;5085920;28;20938;-80
2023/09/27 02:35:13;;;;;;;20.93;15.40;;;14.10;81.00;;;;;;5086972;28;20501;-79
2023/09/27 02:37:44;;;;;;;17.90;12.90;;;14.10;81.00;;;;;;5088470;28;20462;-79
2023/09/27 02:40:12;;;;;;;19.80;13.80;;;14.10;81.10;;;;;;5102267;28;20774;-79
2023/09/27 02:42:42;;;;;;;33.77;14.70;;;14.10;81.00;;;;;;5086245;28;21156;-81
2023/09/27 02:45:12;;;;;;;18.70;14.00;;;14.10;80.80;;;;;;5087528;28;20491;-80
2023/09/27 02:47:43;;;;;;;21.90;14.67;;;14.00;80.70;;;;;;5088263;28;20449;-79
2023/09/27 02:50:13;;;;;;;19.80;13.67;;;13.90;80.80;;;;;;5086397;28;20451;-79
2023/09/27 02:52:41;;;;;;;23.37;14.87;;;13.90;80.90;;;;;;5084284;28;20455;-80
2023/09/27 02:55:10;;;;;;;23.10;14.00;;;13.90;80.80;;;;;;5081764;28;20884;-80
2023/09/27 02:57:39;;;;;;;19.33;13.97;;;13.90;80.90;;;;;;5083210;28;20452;-78
2023/09/27 03:00:09;;;;;;;20.63;13.13;;;13.90;80.90;;;;;;5086155;28;21052;-79
2023/09/27 03:02:39;;;;;;;23.50;13.40;;;13.90;80.70;;;;;;5085435;28;20487;-80
2023/09/27 03:05:09;;;;;;;17.70;13.80;;;13.90;80.80;;;;;;5085210;28;20808;-79
2023/09/27 03:07:38;;;;;;;20.03;14.53;;;13.80;80.90;;;;;;5084318;28;20455;-78
2023/09/27 03:10:10;;;;;;;20.80;13.23;;;13.80;80.90;;;;;;5084022;28;20515;-79
2023/09/27 03:12:40;;;;;;;20.13;14.27;;;13.80;80.90;;;;;;5087492;28;20463;-80
2023/09/27 03:15:11;;;;;;;21.13;14.50;;;13.90;81.10;;;;;;5087179;28;21161;-79
2023/09/27 03:17:43;;;;;;;20.40;14.40;;;13.90;80.90;;;;;;5084461;28;20463;-79
2023/09/27 03:20:15;;;;;;;19.40;13.90;;;13.90;80.90;;;;;;5085569;28;20466;-80
2023/09/27 03:22:45;;;;;;;18.87;13.80;;;13.90;80.90;;;;;;5083602;28;20474;-79
2023/09/27 03:25:14;;;;;;;30.13;16.93;;;13.90;81.10;;;;;;5085252;28;20992;-79
2023/09/27 03:27:43;;;;;;;22.63;14.90;;;13.90;80.90;;;;;;5087051;28;20508;-79
2023/09/27 03:30:13;;;;;;;27.73;17.80;;;13.80;80.70;;;;;;5085021;28;20466;-80
2023/09/27 03:32:43;;;;;;;26.17;16.67;;;13.80;80.80;;;;;;5080328;28;20554;-80
2023/09/27 03:35:12;;;;;;;23.90;14.83;;;13.80;80.80;;;;;;5079814;28;20515;-78
2023/09/27 03:37:40;;;;;;;24.13;15.90;;;13.80;80.90;;;;;;5104633;28;20559;-80
2023/09/27 03:40:13;;;;;;;26.20;16.17;;;13.70;81.00;;;;;;5090574;28;20489;-80
2023/09/27 03:42:43;;;;;;;21.80;15.43;;;13.80;80.80;;;;;;5087200;28;20477;-78
2023/09/27 03:45:12;;;;;;;22.10;15.73;;;13.70;80.90;;;;;;5088039;28;20481;-80
2023/09/27 03:47:42;;;;;;;24.30;15.87;;;13.70;80.90;;;;;;5108950;28;20462;-78
2023/09/27 03:50:12;;;;;;;20.77;14.70;;;13.70;81.00;;;;;;5086460;28;20518;-80
2023/09/27 03:52:41;;;;;;;24.80;15.80;;;13.70;81.00;;;;;;5106286;28;20457;-79
2023/09/27 03:55:10;;;;;;;21.60;14.27;;;13.70;81.10;;;;;;5088278;28;20446;-79
2023/09/27 03:57:38;;;;;;;19.03;13.60;;;13.70;81.20;;;;;;5086524;28;20467;-79
2023/09/27 04:00:14;;;;;;;21.70;13.17;;;13.70;81.20;;;;;;5089376;28;20510;-80
2023/09/27 04:02:46;;;;;;;33.50;12.47;;;13.70;81.30;;;;;;5091796;28;20561;-80
2023/09/27 04:05:18;;;;;;;16.87;11.97;;;13.80;81.40;;;;;;5089654;28;20466;-79
2023/09/27 04:07:47;;;;;;;14.90;10.60;;;13.80;81.50;;;;;;5086152;28;20487;-79
2023/09/27 04:10:16;;;;;;;14.57;11.00;;;13.80;81.50;;;;;;5091205;28;20477;-79
2023/09/27 04:12:44;;;;;;;17.93;12.30;;;13.80;81.60;;;;;;5088896;28;20538;-78
2023/09/27 04:15:12;;;;;;;29.77;13.20;;;13.90;81.70;;;;;;5089649;28;20443;-79
2023/09/27 04:17:41;;;;;;;25.23;12.37;;;13.90;81.70;;;;;;5090609;28;20458;-80
2023/09/27 04:20:14;;;;;;;17.43;11.33;;;13.90;81.80;;;;;;5092174;28;20465;-79
2023/09/27 04:22:45;;;;;;;46.77;10.90;;;13.90;81.80;;;;;;5090144;28;20645;-80
2023/09/27 04:25:14;;;;;;;57.07;10.33;;;13.90;81.90;;;;;;5092393;28;20524;-81
2023/09/27 04:27:45;;;;;;;56.00;10.27;;;13.90;81.90;;;;;;5090690;28;20470;-79
2023/09/27 04:30:14;;;;;;;50.47;10.47;;;13.90;81.90;;;;;;5089974;28;20447;-80
2023/09/27 04:32:44;;;;;;;13.60;8.50;;;13.90;82.00;;;;;;5092970;28;20447;-79
2023/09/27 04:35:14;;;;;;;27.60;8.20;;;13.90;82.10;;;;;;5088965;28;20824;-80
2023/09/27 04:37:44;;;;;;;42.07;9.57;;;13.90;82.20;;;;;;5075398;28;20455;-79
2023/09/27 04:40:13;;;;;;;10.83;7.83;;;14.00;82.20;;;;;;5077034;28;21038;-81
2023/09/27 04:42:42;;;;;;;10.70;7.37;;;14.00;82.20;;;;;;5092087;28;20451;-79
2023/09/27 04:45:13;;;;;;;13.63;7.83;;;14.00;82.30;;;;;;5090015;28;20913;-80
2023/09/27 04:47:44;;;;;;;40.30;9.07;;;14.00;82.40;;;;;;5088984;28;21227;-79
2023/09/27 04:50:13;;;;;;;23.60;8.27;;;14.00;82.40;;;;;;5073171;28;21204;-79
2023/09/27 04:52:41;;;;;;;33.40;8.20;;;14.00;82.40;;;;;;5086577;28;20467;-78
2023/09/27 04:55:12;;;;;;;28.83;8.00;;;14.00;82.40;;;;;;5088792;28;20443;-79
2023/09/27 04:57:41;;;;;;;69.30;9.53;;;14.00;82.40;;;;;;5090789;28;20552;-78
2023/09/27 05:00:18;;;;;;;32.77;7.60;;;14.00;82.40;;;;;;5099273;28;20452;-79
2023/09/27 05:02:48;;;;;;;35.73;7.70;;;14.00;82.40;;;;;;5091818;28;20720;-79
2023/09/27 05:05:16;;;;;;;31.40;7.50;;;14.00;82.40;;;;;;5108532;28;20471;-80
2023/09/27 05:07:44;;;;;;;29.83;7.70;;;14.00;82.40;;;;;;5088729;28;21004;-79
2023/09/27 05:10:14;;;;;;;18.90;7.40;;;14.00;82.60;;;;;;5086559;28;20866;-78
2023/09/27 05:12:42;;;;;;;17.10;7.20;;;13.90;82.50;;;;;;5108004;28;20797;-78
2023/09/27 05:15:10;;;;;;;53.37;10.57;;;13.90;82.50;;;;;;5111310;28;20451;-79
2023/09/27 05:17:38;;;;;;;45.23;9.40;;;13.80;82.60;;;;;;5110344;28;20547;-79
2023/09/27 05:20:10;;;;;;;33.87;8.80;;;13.70;82.50;;;;;;5090925;28;20445;-78
2023/09/27 05:22:40;;;;;;;31.67;9.50;;;13.60;82.70;;;;;;5090406;28;20515;-80
2023/09/27 05:25:08;;;;;;;24.23;8.93;;;13.50;83.00;;;;;;5089931;28;20897;-78
2023/09/27 05:27:38;;;;;;;36.90;9.10;;;13.40;83.20;;;;;;5109973;28;20992;-79
2023/09/27 05:30:08;;;;;;;18.40;8.07;;;13.40;83.40;;;;;;5109677;28;20457;-78
2023/09/27 05:32:37;;;;;;;22.57;9.13;;;13.40;83.40;;;;;;5082906;28;20546;-81
2023/09/27 05:35:07;;;;;;;21.30;9.07;;;13.40;83.40;;;;;;5089867;28;20519;-79
2023/09/27 05:37:35;;;;;;;20.67;9.73;;;13.40;83.50;;;;;;5089256;28;20497;-79
2023/09/27 05:40:05;;;;;;;18.80;9.37;;;13.40;83.60;;;;;;5088038;28;20455;-79
2023/09/27 05:42:33;;;;;;;20.87;10.37;;;13.40;83.60;;;;;;5089465;28;20472;-79
2023/09/27 05:45:04;;;;;;;23.80;11.00;;;13.40;83.80;;;;;;5082223;28;20458;-78
2023/09/27 05:47:32;;;;;;;26.77;9.77;;;13.50;83.80;;;;;;5069557;28;20465;-79
2023/09/27 05:50:00;;;;;;;37.43;11.47;;;13.50;83.70;;;;;;5087857;28;20495;-79
2023/09/27 05:52:28;;;;;;;13.47;9.50;;;13.50;83.70;;;;;;5069590;28;21011;-79
2023/09/27 05:54:57;;;;;;;22.40;9.73;;;13.50;83.70;;;;;;5083843;28;20505;-80
2023/09/27 05:57:25;;;;;;;29.80;10.00;;;13.50;83.90;;;;;;5068463;28;20462;-80
2023/09/27 05:59:53;;;;;;;26.07;10.47;;;13.50;83.90;;;;;;5089396;28;20838;-79
2023/09/27 06:02:30;;;;;;;15.83;9.87;;;13.60;83.80;;;;;;5098167;28;20489;-79
2023/09/27 06:05:00;;;;;;;17.20;9.77;;;13.60;83.80;;;;;;5093080;28;20552;-79
2023/09/27 06:07:29;;;;;;;13.50;8.60;;;13.70;83.80;;;;;;5089069;28;21213;-79
2023/09/27 06:09:57;;;;;;;19.03;9.27;;;13.70;83.80;;;;;;5076552;28;20484;-80
2023/09/27 06:12:25;;;;;;;24.53;9.57;;;13.70;83.80;;;;;;5094998;28;20469;-78
2023/09/27 06:14:53;;;;;;;43.70;10.73;;;13.70;83.80;;;;;;5091310;28;20854;-79
2023/09/27 06:17:22;;;;;;;20.73;10.13;;;13.70;83.80;;;;;;5076371;28;20807;-79
2023/09/27 06:19:50;;;;;;;13.60;9.90;;;13.70;83.90;;;;;;5096555;28;20891;-80
2023/09/27 06:22:22;;;;;;;14.40;9.93;;;13.80;84.00;;;;;;5096623;28;20542;-79
2023/09/27 06:24:51;;;;;;;22.07;10.07;;;13.80;84.00;;;;;;5094609;28;20454;-79
2023/09/27 06:27:19;;;;;;;14.33;9.77;;;13.90;84.00;;;;;;5093035;28;20562;-79
2023/09/27 06:29:47;;;;;;;13.00;9.50;;;13.90;84.00;;;;;;5094863;28;20446;-78
2023/09/27 06:32:15;;;;;;;26.33;9.93;;;13.90;84.00;;;;;;5094018;28;20498;-79
2023/09/27 06:34:44;;;;;;;13.60;9.10;;;14.00;84.00;;;;;;5074230;28;21064;-80
2023/09/27 06:37:13;;;;;;;13.70;8.70;;;14.00;84.10;;;;;;5093150;28;20452;-79
2023/09/27 06:39:42;;;;;;;44.50;9.87;;;14.00;84.10;;;;;;5077956;28;20515;-79
2023/09/27 06:42:10;;;;;;;45.93;10.83;;;14.00;83.90;;;;;;5097928;28;20509;-78
2023/09/27 06:44:40;;;;;;;15.00;9.60;;;14.00;84.00;;;;;;5093008;28;20463;-78
2023/09/27 06:47:08;;;;;;;13.63;9.50;;;14.10;84.10;;;;;;5093969;28;21024;-79
2023/09/27 06:49:37;;;;;;;20.70;8.90;;;14.10;84.20;;;;;;5092787;28;20536;-78
2023/09/27 06:52:08;;;;;;;12.80;7.70;;;14.10;84.30;;;;;;5096604;28;20446;-80
2023/09/27 06:54:36;;;;;;;12.63;8.73;;;14.20;84.20;;;;;;5073011;28;20823;-79
2023/09/27 06:57:04;;;;;;;45.57;10.63;;;14.20;84.20;;;;;;5086114;28;20504;-79
2023/09/27 06:59:32;;;;;;;65.13;11.53;;;14.20;84.20;;;;;;5096533;28;20447;-78
2023/09/27 07:02:01;;;;;;;50.77;10.73;;;14.20;84.20;;;;;;5093596;28;20533;-79
2023/09/27 07:04:29;;;;;;;48.57;11.23;;;14.20;84.20;;;;;;5090157;28;20460;-79
2023/09/27 07:06:57;;;;;;;23.47;9.20;;;14.30;84.30;;;;;;5089344;28;20473;-78
2023/09/27 07:09:27;;;;;;;12.87;9.53;;;14.30;84.30;;;;;;5085775;28;20550;-78
2023/09/27 07:11:55;;;;;;;16.00;8.80;;;14.30;84.40;;;;;;5091543;28;20448;-79
2023/09/27 07:14:23;;;;;;;32.60;9.00;;;14.40;84.30;;;;;;5091770;28;20487;-79
2023/09/27 07:16:51;;;;;;;16.90;8.90;;;14.40;84.40;;;;;;5083722;28;20448;-78
2023/09/27 07:19:31;;;;;;;12.03;7.73;;;14.40;84.30;;;;;;5089362;28;20481;-79
2023/09/27 07:22:04;;;;;;;10.33;7.87;;;14.50;84.40;;;;;;5081819;28;20464;-80
2023/09/27 07:24:34;;;;;;;30.43;9.90;;;14.50;84.40;;;;;;5088958;28;20454;-79
2023/09/27 07:27:01;;;;;;;26.33;10.20;;;14.60;84.40;;;;;;5082128;28;20491;-78
2023/09/27 07:29:30;;;;;;;13.00;8.57;;;14.60;84.40;;;;;;5083714;28;21019;-79
2023/09/27 07:31:58;;;;;;;14.43;9.10;;;14.60;84.40;;;;;;5102685;28;20475;-78
2023/09/27 07:34:27;;;;;;;13.47;9.60;;;14.60;84.40;;;;;;5092719;28;20814;-79
2023/09/27 07:36:55;;;;;;;16.13;8.77;;;14.60;84.50;;;;;;5094004;28;20533;-78
2023/09/27 07:39:24;;;;;;;14.90;9.70;;;14.70;84.60;;;;;;5111333;28;20481;-78
2023/09/27 07:41:53;;;;;;;14.50;9.07;;;14.70;84.40;;;;;;5110998;28;20500;-78
2023/09/27 07:44:21;;;;;;;17.23;10.20;;;14.70;84.40;;;;;;5109275;28;20515;-79
2023/09/27 07:46:49;;;;;;;16.70;11.53;;;14.80;84.50;;;;;;5108698;28;20470;-78
2023/09/27 07:49:17;;;;;;;17.63;11.57;;;14.80;84.60;;;;;;5111830;28;20535;-78
2023/09/27 07:51:46;;;;;;;44.67;16.10;;;14.90;84.60;;;;;;5110442;28;20455;-79
2023/09/27 07:54:15;;;;;;;63.73;16.13;;;14.90;84.60;;;;;;5105856;28;20463;-80
2023/09/27 07:56:43;;;;;;;46.10;16.93;;;14.90;84.50;;;;;;5110202;28;20513;-78
2023/09/27 07:59:13;;;;;;;23.97;13.77;;;14.90;84.40;;;;;;5112926;28;20455;-79
2023/09/27 08:01:41;;;;;;;23.60;14.10;;;14.90;84.70;;;;;;5100688;28;20477;-79
2023/09/27 08:04:12;;;;;;;28.20;14.13;;;14.90;84.80;;;;;;5089747;28;20519;-79
2023/09/27 08:06:40;;;;;;;28.37;13.63;;;15.00;84.80;;;;;;5091499;28;20478;-79
2023/09/27 08:09:08;;;;;;;29.03;13.50;;;15.00;84.80;;;;;;5093932;28;20473;-79
2023/09/27 08:11:50;;;;;;;20.90;13.17;;;15.10;84.90;;;;;;5073280;28;20834;-79
2023/09/27 08:14:21;;;;;;;27.27;14.23;;;15.10;84.90;;;;;;5092619;28;20451;-78
2023/09/27 08:16:50;;;;;;;23.13;13.90;;;15.20;85.00;;;;;;5071207;28;20457;-79
2023/09/27 08:19:18;;;;;;;23.37;14.83;;;15.20;85.10;;;;;;5092272;28;20456;-79
2023/09/27 08:21:46;;;;;;;27.77;16.60;;;15.30;85.10;;;;;;5092199;28;20475;-79
2023/09/27 08:24:17;;;;;;;22.43;15.43;;;15.30;85.20;;;;;;5093577;28;21076;-79
2023/09/27 08:26:45;;;;;;;28.97;16.90;;;15.30;85.20;;;;;;5092639;28;20533;-78
2023/09/27 08:29:14;;;;;;;24.87;15.73;;;15.40;85.20;;;;;;5073833;28;20458;-79
2023/09/27 08:31:44;;;;;;;22.07;14.90;;;15.50;85.10;;;;;;5076909;28;20476;-79
2023/09/27 08:34:12;;;;;;;22.23;13.87;;;15.50;85.20;;;;;;5091044;28;20487;-79
2023/09/27 08:36:40;;;;;;;28.80;17.07;;;15.60;85.20;;;;;;5091277;28;20471;-79
2023/09/27 08:39:09;;;;;;;23.07;15.00;;;15.70;85.20;;;;;;5092609;28;20452;-79
2023/09/27 08:41:39;;;;;;;23.07;15.10;;;15.70;85.20;;;;;;5091259;28;20449;-79
2023/09/27 08:44:07;;;;;;;24.17;16.10;;;15.70;85.30;;;;;;5090295;28;20547;-79
2023/09/27 08:46:36;;;;;;;26.03;15.27;;;15.80;85.50;;;;;;5090773;28;20456;-79
2023/09/27 08:49:09;;;;;;;19.70;14.40;;;15.80;85.50;;;;;;5089301;28;20860;-79
2023/09/27 08:51:39;;;;;;;21.30;14.73;;;15.90;85.60;;;;;;5088827;28;20451;-79
2023/09/27 08:54:07;;;;;;;17.77;13.00;;;16.00;85.60;;;;;;5089942;28;20475;-79
2023/09/27 08:56:36;;;;;;;21.30;14.77;;;16.10;85.50;;;;;;5092407;28;20448;-79
2023/09/27 08:59:05;;;;;;;23.17;13.17;;;16.10;85.40;;;;;;5090980;28;20804;-79
2023/09/27 09:01:34;;;;;;;18.63;13.07;;;16.20;85.40;;;;;;5089547;28;20521;-79
2023/09/27 09:04:03;;;;;;;21.27;12.77;;;16.20;85.30;;;;;;5089385;28;20448;-78
2023/09/27 09:06:33;;;;;;;20.53;12.83;;;16.20;85.40;;;;;;5090175;28;20488;-78
2023/09/27 09:09:10;;;;;;;20.37;13.53;;;16.20;85.40;;;;;;5090676;28;21229;-78
2023/09/27 09:11:39;;;;;;;19.93;13.40;;;16.20;85.30;;;;;;5088547;28;20476;-79
2023/09/27 09:14:07;;;;;;;26.97;15.77;;;16.10;85.40;;;;;;5086207;28;20808;-80
2023/09/27 09:16:39;;;;;;;23.43;15.67;;;16.10;85.50;;;;;;5087681;28;20441;-79
2023/09/27 09:19:20;;;;;;;23.63;15.97;;;16.10;85.60;;;;;;5087009;28;20544;-79
2023/09/27 09:22:09;;;;;;;23.43;15.27;;;16.10;85.70;;;;;;5087215;28;20511;-79
2023/09/27 09:24:41;;;;;;;21.90;15.13;;;16.10;85.80;;;;;;5089300;28;20455;-80
2023/09/27 09:27:10;;;;;;;22.77;15.20;;;16.10;85.70;;;;;;5072643;28;20477;-79
2023/09/27 09:29:47;;;;;;;21.30;15.10;;;16.20;85.80;;;;;;5088727;28;20445;-78
2023/09/27 09:32:17;;;;;;;19.93;14.50;;;16.20;85.90;;;;;;5071520;28;20826;-79
2023/09/27 09:34:48;;;;;;;21.87;16.40;;;16.30;85.90;;;;;;5085869;28;20462;-79
2023/09/27 09:37:19;;;;;;;25.00;16.33;;;16.40;85.90;;;;;;5085726;28;20445;-79
2023/09/27 09:39:49;;;;;;;24.00;15.70;;;16.40;85.90;;;;;;5088707;28;21018;-80
2023/09/27 09:42:38;;;;;;;18.10;14.43;;;16.50;85.90;;;;;;5088950;28;20441;-79
2023/09/27 09:45:08;;;;;;;25.50;18.20;;;16.50;85.70;;;;;;5079603;28;20520;-80
2023/09/27 09:47:36;;;;;;;22.77;15.73;;;16.60;85.60;;;;;;5067091;28;20498;-80
2023/09/27 09:50:11;;;;;;;22.97;15.20;;;16.60;85.50;;;;;;5084807;28;21008;-80
2023/09/27 09:52:42;;;;;;;23.33;17.10;;;16.60;85.50;;;;;;5087986;28;20502;-79
2023/09/27 09:55:12;;;;;;;22.53;16.23;;;16.70;85.50;;;;;;5084691;28;20509;-79
2023/09/27 09:58:05;;;;;;;21.83;16.37;;;16.70;85.40;;;;;;5086428;28;20452;-79
2023/09/27 10:00:36;;;;;;;23.77;16.93;;;16.70;85.40;;;;;;5086975;28;20475;-78
2023/09/27 10:03:05;;;;;;;22.03;16.60;;;16.70;85.50;;;;;;5082909;28;20978;-79
2023/09/27 10:05:37;;;;;;;22.83;16.80;;;16.70;85.40;;;;;;5084844;28;20459;-79
2023/09/27 10:08:08;;;;;;;23.10;18.03;;;16.80;85.50;;;;;;5088693;28;20476;-80
2023/09/27 10:10:38;;;;;;;21.67;16.63;;;16.80;85.60;;;;;;5087692;28;20462;-79
2023/09/27 10:13:10;;;;;;;21.30;16.57;;;16.80;85.80;;;;;;5084691;28;20450;-79
2023/09/27 10:15:40;;;;;;;20.93;16.70;;;16.80;85.80;;;;;;5088018;28;20463;-80
2023/09/27 10:18:33;;;;;;;19.87;16.40;;;16.90;85.90;;;;;;5069742;28;20508;-78
2023/09/27 10:21:03;;;;;;;22.77;17.03;;;17.00;86.20;;;;;;5064006;28;21299;-79
2023/09/27 10:23:53;;;;;;;22.20;16.70;;;17.00;86.20;;;;;;5088445;28;20521;-80
2023/09/27 10:26:31;;;;;;;20.20;17.40;;;17.10;86.40;;;;;;5080102;28;20947;-80
2023/09/27 10:29:12;;;;;;;23.60;17.23;;;17.20;86.50;;;;;;5086826;28;20561;-80
2023/09/27 10:32:20;;;;;;;20.20;15.93;;;17.40;86.60;;;;;;5084939;28;20476;-80
2023/09/27 10:34:51;;;;;;;22.40;15.97;;;17.50;86.60;;;;;;5085322;28;20502;-81
2023/09/27 10:37:58;;;;;;;19.53;14.50;;;17.60;86.60;;;;;;5082226;28;20454;-80
2023/09/27 10:40:40;;;;;;;21.20;14.60;;;17.70;86.70;;;;;;5074379;28;21013;-81
2023/09/27 10:43:08;;;;;;;18.03;14.30;;;17.90;87.10;;;;;;5081933;28;20530;-80
2023/09/27 10:45:36;;;;;;;17.40;13.97;;;18.00;86.90;;;;;;5085218;28;20537;-82
2023/09/27 10:48:15;;;;;;;17.57;13.77;;;18.20;86.90;;;;;;5086052;28;20460;-80
2023/09/27 10:50:52;;;;;;;16.07;12.73;;;18.30;87.00;;;;;;5087861;28;20444;-80
2023/09/27 10:53:20;;;;;;;14.97;12.23;;;18.40;86.90;;;;;;5069591;28;20894;-79
2023/09/27 10:55:50;;;;;;;16.43;12.37;;;18.60;86.90;;;;;;5066788;28;20475;-80
2023/09/27 10:58:19;;;;;;;18.00;12.23;;;18.70;86.90;;;;;;5086084;28;20459;-79
2023/09/27 11:00:51;;;;;;;13.23;11.40;;;18.70;86.90;;;;;;5094286;28;21011;-80
2023/09/27 11:03:20;;;;;;;17.67;12.10;;;18.80;86.70;;;;;;5085659;28;21033;-79
2023/09/27 11:05:48;;;;;;;15.93;11.13;;;18.90;86.50;;;;;;5085957;28;20789;-80
2023/09/27 11:08:21;;;;;;;14.73;11.30;;;18.90;86.50;;;;;;5067278;28;20970;-78
2023/09/27 11:10:52;;;;;;;15.47;11.60;;;19.00;86.40;;;;;;5084478;28;20460;-78
2023/09/27 11:13:21;;;;;;;18.80;13.20;;;19.00;86.10;;;;;;5087754;28;20460;-79
2023/09/27 11:15:49;;;;;;;18.20;14.43;;;19.00;86.10;;;;;;5088017;28;20445;-80
2023/09/27 11:18:17;;;;;;;20.20;14.00;;;19.10;86.00;;;;;;5066208;28;20824;-79
2023/09/27 11:20:45;;;;;;;17.17;12.87;;;19.10;86.00;;;;;;5083306;28;20457;-81
2023/09/27 11:23:13;;;;;;;18.33;13.40;;;19.10;86.00;;;;;;5068349;28;20463;-79
2023/09/27 11:25:42;;;;;;;16.00;13.13;;;19.10;85.90;;;;;;5084412;28;20510;-78
2023/09/27 11:28:19;;;;;;;19.37;13.37;;;19.20;85.80;;;;;;5087283;28;20534;-79
2023/09/27 11:30:57;;;;;;;18.00;13.43;;;19.20;85.90;;;;;;5083902;28;20479;-80
2023/09/27 11:33:31;;;;;;;18.77;14.13;;;19.30;85.90;;;;;;5083408;28;20470;-79
2023/09/27 11:36:04;;;;;;;18.80;14.00;;;19.40;86.00;;;;;;5082518;28;20472;-80
2023/09/27 11:38:32;;;;;;;17.07;13.83;;;19.50;85.90;;;;;;5082602;28;21486;-81
2023/09/27 11:41:05;;;;;;;22.03;13.10;;;19.50;85.50;;;;;;5065173;28;20477;-81
2023/09/27 11:43:34;;;;;;;16.83;13.37;;;19.60;85.50;;;;;;5079368;28;20465;-78
2023/09/27 11:46:03;;;;;;;16.40;13.00;;;19.70;85.60;;;;;;5083908;28;20465;-80
2023/09/27 11:48:33;;;;;;;19.23;13.30;;;19.80;85.60;;;;;;5084657;28;20481;-78
2023/09/27 11:51:02;;;;;;;18.30;13.50;;;19.80;85.30;;;;;;5081521;28;20556;-80
2023/09/27 11:53:30;;;;;;;17.67;12.50;;;19.90;85.30;;;;;;5083415;28;20554;-80
2023/09/27 11:56:01;;;;;;;14.53;12.60;;;20.00;85.20;;;;;;5083847;28;20496;-80
2023/09/27 11:58:29;;;;;;;13.30;10.77;;;20.20;85.10;;;;;;5085116;28;20860;-79
2023/09/27 12:00:58;;;;;;;19.90;11.80;;;20.30;85.10;;;;;;5081907;28;20479;-80
2023/09/27 12:03:26;;;;;;;21.33;12.53;;;20.40;85.00;;;;;;5084936;28;20454;-80
2023/09/27 12:05:54;;;;;;;17.20;12.53;;;20.50;84.90;;;;;;5085865;28;20454;-79
2023/09/27 12:08:23;;;;;;;17.90;12.03;;;20.50;84.70;;;;;;5087082;28;20497;-79
2023/09/27 12:10:51;;;;;;;15.63;10.43;;;20.60;84.50;;;;;;5069781;28;20441;-80
2023/09/27 12:13:19;;;;;;;14.37;11.50;;;20.70;84.20;;;;;;5084214;28;20453;-80
2023/09/27 12:15:47;;;;;;;19.70;12.00;;;20.70;84.10;;;;;;5088495;28;20446;-79
2023/09/27 12:18:16;;;;;;;17.17;11.07;;;20.80;84.00;;;;;;5090427;28;20983;-80
2023/09/27 12:20:45;;;;;;;18.23;10.70;;;20.80;83.80;;;;;;5090938;28;20449;-80
2023/09/27 12:23:16;;;;;;;13.77;10.47;;;20.90;83.50;;;;;;5087808;28;21001;-79
2023/09/27 12:25:44;;;;;;;13.13;10.47;;;20.90;83.50;;;;;;5086684;28;20522;-78
2023/09/27 12:28:14;;;;;;;13.90;10.23;;;21.00;83.20;;;;;;5088678;28;20544;-80
2023/09/27 12:30:42;;;;;;;12.60;10.10;;;21.00;83.10;;;;;;5087317;28;20468;-80
2023/09/27 12:33:12;;;;;;;14.20;10.10;;;21.10;82.80;;;;;;5088109;28;20622;-81
2023/09/27 12:35:41;;;;;;;14.13;9.90;;;21.20;82.70;;;;;;5088479;28;20531;-79
2023/09/27 12:38:10;;;;;;;15.87;10.83;;;21.30;82.40;;;;;;5088176;28;21040;-79
2023/09/27 12:40:39;;;;;;;15.77;9.47;;;21.30;82.00;;;;;;5090667;28;20436;-80
2023/09/27 12:43:06;;;;;;;18.33;9.23;;;21.40;81.80;;;;;;5087504;28;20460;-79
2023/09/27 12:45:39;;;;;;;16.97;9.97;;;21.40;81.90;;;;;;5088916;28;20536;-79